Time;durP1;ratioP1;P1;durP2;ratioP2;P2;SDS_P1;SDS_P2;PMS_P1;PMS_P2;Temp;Humidity;BMP_temperature;BMP_pressure;BME280_temperature;BME280_humidity;BME280_pressure;Samples;Min_cycle;Max_cycle;Signal;HPM_P1;HPM_P2
2023/03/21 00:01:53;;;;;;;12.52;7.10;;;9.70;99.90;;;;;;4999084;28;20026;-73
2023/03/21 00:04:20;;;;;;;11.85;6.95;;;9.70;99.90;;;;;;5000958;28;20113;-72
2023/03/21 00:06:45;;;;;;;13.73;6.85;;;9.70;99.90;;;;;;5005476;28;20077;-74
2023/03/21 00:09:11;;;;;;;13.73;6.35;;;9.70;99.90;;;;;;5000536;28;20033;-72
2023/03/21 00:11:37;;;;;;;14.27;6.70;;;9.70;99.90;;;;;;4997981;28;20026;-73
2023/03/21 00:14:03;;;;;;;11.95;6.35;;;9.60;99.90;;;;;;5000422;28;20478;-72
2023/03/21 00:16:34;;;;;;;14.73;6.38;;;9.60;99.90;;;;;;5000701;28;20088;-72
2023/03/21 00:19:02;;;;;;;13.20;6.57;;;9.70;99.90;;;;;;4999731;28;20087;-72
2023/03/21 00:21:31;;;;;;;15.95;6.32;;;9.70;99.90;;;;;;5005361;28;20079;-73
2023/03/21 00:23:57;;;;;;;15.00;7.30;;;9.70;99.90;;;;;;5003224;28;20027;-74
2023/03/21 00:26:23;;;;;;;13.98;6.35;;;9.60;99.90;;;;;;5004401;28;20037;-72
2023/03/21 00:28:49;;;;;;;13.25;7.07;;;9.60;99.90;;;;;;4998159;28;20073;-73
2023/03/21 00:31:16;;;;;;;11.95;6.53;;;9.60;99.90;;;;;;4999222;28;20068;-75
2023/03/21 00:33:47;;;;;;;14.13;6.80;;;9.60;99.90;;;;;;5000082;28;20037;-74
2023/03/21 00:36:13;;;;;;;13.18;6.63;;;9.60;99.90;;;;;;4999162;28;20030;-73
2023/03/21 00:38:38;;;;;;;14.90;6.82;;;9.60;99.90;;;;;;5000337;28;20675;-72
2023/03/21 00:41:15;;;;;;;14.98;7.07;;;9.60;99.90;;;;;;4998797;28;20045;-73
2023/03/21 00:43:41;;;;;;;13.57;7.13;;;9.60;99.90;;;;;;4997681;28;20126;-71
2023/03/21 00:46:07;;;;;;;13.23;6.45;;;9.60;99.90;;;;;;4999277;28;20116;-72
2023/03/21 00:48:32;;;;;;;14.13;6.80;;;9.60;99.90;;;;;;4996007;28;20532;-73
2023/03/21 00:50:59;;;;;;;15.13;6.93;;;9.60;99.90;;;;;;5000805;28;20150;-74
2023/03/21 00:53:26;;;;;;;13.80;6.95;;;9.60;99.90;;;;;;4997136;28;20200;-73
2023/03/21 00:55:53;;;;;;;15.43;6.90;;;9.60;99.90;;;;;;4999724;28;20134;-72
2023/03/21 00:58:19;;;;;;;13.80;6.65;;;9.60;99.90;;;;;;5026841;28;20128;-74
2023/03/21 01:00:47;;;;;;;15.63;7.22;;;9.60;99.90;;;;;;4997984;28;20402;-73
2023/03/21 01:03:15;;;;;;;11.50;6.53;;;9.60;99.90;;;;;;4997553;28;20106;-73
2023/03/21 01:06:05;;;;;;;18.23;7.50;;;9.60;99.90;;;;;;4998528;28;20054;-73
2023/03/21 01:08:37;;;;;;;15.32;7.55;;;9.60;99.90;;;;;;4998265;28;20041;-72
2023/03/21 01:11:09;;;;;;;19.20;8.13;;;9.60;99.90;;;;;;4996649;28;20046;-73
2023/03/21 01:13:34;;;;;;;14.45;7.10;;;9.60;99.90;;;;;;4997360;28;20633;-71
2023/03/21 01:16:00;;;;;;;16.05;7.30;;;9.60;99.90;;;;;;4996028;28;20042;-73
2023/03/21 01:18:29;;;;;;;14.82;7.70;;;9.60;99.90;;;;;;4995445;28;20474;-75
2023/03/21 01:20:57;;;;;;;15.20;7.82;;;9.60;99.90;;;;;;4995077;28;20042;-72
2023/03/21 01:23:23;;;;;;;21.85;8.48;;;9.60;99.90;;;;;;4995564;28;20069;-72
2023/03/21 01:25:52;;;;;;;16.98;8.18;;;9.60;99.90;;;;;;5002579;28;20030;-74
2023/03/21 01:28:17;;;;;;;15.05;7.40;;;9.60;99.90;;;;;;5004079;28;20042;-73
2023/03/21 01:30:48;;;;;;;16.55;7.90;;;9.60;99.90;;;;;;5007138;28;20473;-74
2023/03/21 01:33:15;;;;;;;18.05;7.80;;;9.50;99.90;;;;;;5004865;28;20030;-73
2023/03/21 01:35:40;;;;;;;21.63;8.25;;;9.50;99.90;;;;;;5004897;28;20506;-73
2023/03/21 01:38:07;;;;;;;19.70;9.02;;;9.50;99.90;;;;;;5004693;28;20049;-73
2023/03/21 01:40:32;;;;;;;17.70;9.02;;;9.60;99.90;;;;;;5007667;28;20441;-72
2023/03/21 01:42:58;;;;;;;22.95;9.35;;;9.60;99.90;;;;;;5002289;28;20046;-73
2023/03/21 01:46:00;;;;;;;16.52;8.63;;;9.60;99.90;;;;;;5003048;28;20044;-73
2023/03/21 01:48:27;;;;;;;21.83;9.10;;;9.60;99.90;;;;;;5000289;28;20046;-73
2023/03/21 01:50:56;;;;;;;22.02;9.07;;;9.50;99.90;;;;;;5003039;28;20061;-73
2023/03/21 01:53:28;;;;;;;20.23;9.40;;;9.50;99.90;;;;;;5002742;28;20145;-75
2023/03/21 01:55:56;;;;;;;21.75;8.93;;;9.50;99.90;;;;;;5002923;28;20037;-72
2023/03/21 01:58:23;;;;;;;19.08;8.35;;;9.60;99.90;;;;;;5001877;28;20038;-72
2023/03/21 02:00:50;;;;;;;19.55;9.70;;;9.60;99.90;;;;;;5002213;28;20055;-73
2023/03/21 02:03:16;;;;;;;23.45;9.18;;;9.60;99.90;;;;;;5003577;28;20033;-74
2023/03/21 02:06:03;;;;;;;19.60;8.55;;;9.60;99.90;;;;;;5004628;28;20053;-73
2023/03/21 02:08:30;;;;;;;20.52;8.05;;;9.60;99.90;;;;;;5002438;28;20065;-73
2023/03/21 02:10:59;;;;;;;22.60;8.35;;;9.50;99.90;;;;;;5000270;28;20387;-72
2023/03/21 02:13:24;;;;;;;19.73;8.20;;;9.50;99.90;;;;;;5002774;28;20038;-75
2023/03/21 02:16:14;;;;;;;20.52;7.68;;;9.50;99.90;;;;;;5001517;28;20044;-73
2023/03/21 02:18:49;;;;;;;15.68;7.55;;;9.50;99.90;;;;;;5003971;28;20502;-72
2023/03/21 02:21:29;;;;;;;22.83;8.18;;;9.50;99.90;;;;;;5011263;28;20046;-73
2023/03/21 02:24:19;;;;;;;25.60;8.27;;;9.50;99.90;;;;;;5002237;28;20037;-73
2023/03/21 02:27:12;;;;;;;26.17;7.38;;;9.50;99.90;;;;;;5000768;28;20700;-74
2023/03/21 02:29:59;;;;;;;28.30;7.35;;;9.50;99.90;;;;;;5001635;28;20402;-73
2023/03/21 02:32:45;;;;;;;21.58;8.48;;;9.50;99.90;;;;;;5017472;28;20041;-72
2023/03/21 02:35:19;;;;;;;17.38;7.63;;;9.50;99.90;;;;;;5000641;28;20117;-73
2023/03/21 02:38:07;;;;;;;22.50;6.93;;;9.50;99.90;;;;;;5001098;28;20083;-72
2023/03/21 02:40:40;;;;;;;20.02;6.93;;;9.50;99.90;;;;;;4998376;28;20034;-72
2023/03/21 02:43:35;;;;;;;19.00;7.00;;;9.50;99.90;;;;;;5010159;28;20482;-72
2023/03/21 02:46:23;;;;;;;15.35;6.68;;;9.50;99.90;;;;;;4994412;28;20042;-72
2023/03/21 02:48:56;;;;;;;20.70;6.60;;;9.50;99.90;;;;;;4996893;28;20049;-72
2023/03/21 02:51:24;;;;;;;15.30;6.40;;;9.50;99.90;;;;;;4999553;28;20030;-73
2023/03/21 02:54:01;;;;;;;18.17;6.75;;;9.50;99.90;;;;;;4999273;28;20042;-72
2023/03/21 02:56:28;;;;;;;16.73;6.13;;;9.50;99.90;;;;;;5000707;28;20069;-73
2023/03/21 02:58:53;;;;;;;16.35;6.60;;;9.50;99.90;;;;;;5001785;28;20026;-72
2023/03/21 03:01:19;;;;;;;14.10;6.38;;;9.50;99.90;;;;;;5010670;28;20048;-73
2023/03/21 03:03:46;;;;;;;18.15;6.00;;;9.50;99.90;;;;;;5000992;28;20034;-72
2023/03/21 03:06:36;;;;;;;22.15;5.85;;;9.50;99.90;;;;;;5002704;28;20490;-73
2023/03/21 03:09:24;;;;;;;15.75;5.63;;;9.40;99.90;;;;;;4998674;28;20574;-73
2023/03/21 03:11:57;;;;;;;19.30;6.28;;;9.40;99.90;;;;;;4996331;28;20044;-72
2023/03/21 03:15:01;;;;;;;14.95;5.40;;;9.40;99.90;;;;;;4999858;28;20064;-72
2023/03/21 03:17:50;;;;;;;21.40;6.75;;;9.40;99.90;;;;;;4993853;28;20030;-75
2023/03/21 03:20:43;;;;;;;13.43;4.90;;;9.30;99.90;;;;;;5019922;28;20037;-73
2023/03/21 03:23:40;;;;;;;17.50;6.50;;;9.30;99.90;;;;;;4999440;28;20121;-72
2023/03/21 03:26:12;;;;;;;18.42;5.72;;;9.40;99.90;;;;;;4996465;28;20108;-73
2023/03/21 03:28:43;;;;;;;16.17;6.20;;;9.30;99.90;;;;;;5001687;28;20069;-72
2023/03/21 03:31:11;;;;;;;;;;;9.30;99.90;;;;;;4999215;28;20039;-72
2023/03/21 03:33:41;;;;;;;17.13;6.43;;;9.40;99.90;;;;;;4999337;28;20076;-73
2023/03/21 03:36:10;;;;;;;17.35;6.53;;;9.30;99.90;;;;;;4997969;28;20088;-72
2023/03/21 03:38:37;;;;;;;20.88;6.63;;;9.30;99.90;;;;;;4997508;28;20034;-73
2023/03/21 03:41:14;;;;;;;21.65;6.50;;;9.30;99.90;;;;;;4994858;28;20168;-73
2023/03/21 03:43:45;;;;;;;23.60;7.30;;;9.30;99.90;;;;;;4997208;28;20049;-72
2023/03/21 03:46:17;;;;;;;23.13;7.47;;;9.30;99.90;;;;;;4998039;28;20042;-75
2023/03/21 03:48:52;;;;;;;22.88;6.70;;;9.30;99.90;;;;;;4998392;28;20034;-73
2023/03/21 03:51:27;;;;;;;17.88;7.18;;;9.30;99.90;;;;;;5000582;28;20100;-72
2023/03/21 03:54:03;;;;;;;17.67;6.57;;;9.30;99.90;;;;;;4996219;28;20033;-72
2023/03/21 03:56:29;;;;;;;17.40;6.47;;;9.30;99.90;;;;;;4996957;28;20065;-72
2023/03/21 03:58:56;;;;;;;13.60;5.57;;;9.30;99.90;;;;;;4997979;28;20037;-73
2023/03/21 04:01:22;;;;;;;13.02;6.22;;;9.30;99.90;;;;;;4997806;28;20524;-72
2023/03/21 04:03:50;;;;;;;18.38;6.47;;;9.30;99.90;;;;;;4996039;28;20038;-74
2023/03/21 04:06:18;;;;;;;16.15;6.40;;;9.30;99.90;;;;;;4999485;28;20438;-73
2023/03/21 04:08:43;;;;;;;13.82;5.70;;;9.30;99.90;;;;;;4995971;28;20077;-73
2023/03/21 04:11:12;;;;;;;15.77;6.18;;;9.30;99.90;;;;;;4995428;28;20054;-73
2023/03/21 04:13:38;;;;;;;16.95;6.30;;;9.30;99.90;;;;;;4997113;28;20121;-72
2023/03/21 04:16:04;;;;;;;15.55;5.40;;;9.30;99.90;;;;;;4995751;28;20302;-72
2023/03/21 04:18:29;;;;;;;20.50;6.32;;;9.30;99.90;;;;;;4996196;28;20092;-72
2023/03/21 04:20:56;;;;;;;20.52;6.82;;;9.30;99.90;;;;;;4993982;28;20042;-72
2023/03/21 04:23:22;;;;;;;20.58;6.38;;;9.20;99.90;;;;;;5000047;28;20133;-72
2023/03/21 04:25:47;;;;;;;18.25;6.97;;;9.30;99.90;;;;;;4997842;28;20030;-73
2023/03/21 04:28:13;;;;;;;23.52;6.85;;;9.30;99.90;;;;;;4999377;28;20514;-73
2023/03/21 04:30:40;;;;;;;24.70;7.70;;;9.40;99.90;;;;;;5000532;28;20057;-76
2023/03/21 04:33:06;;;;;;;15.55;6.20;;;9.30;99.90;;;;;;5001510;28;20033;-73
2023/03/21 04:35:33;;;;;;;23.00;7.43;;;9.30;99.90;;;;;;4998942;28;20061;-72
2023/03/21 04:37:58;;;;;;;25.35;7.35;;;9.30;99.90;;;;;;4996982;28;20037;-74
2023/03/21 04:40:24;;;;;;;22.00;7.82;;;9.30;99.90;;;;;;5000119;28;20046;-72
2023/03/21 04:42:50;;;;;;;21.65;7.53;;;9.20;99.90;;;;;;4996878;28;20034;-73
2023/03/21 04:45:16;;;;;;;29.98;8.65;;;9.20;99.90;;;;;;4999216;28;20042;-73
2023/03/21 04:47:42;;;;;;;17.27;8.02;;;9.20;99.90;;;;;;4996524;28;20075;-72
2023/03/21 04:50:12;;;;;;;21.70;8.77;;;9.20;99.90;;;;;;4998188;28;20034;-74
2023/03/21 04:52:38;;;;;;;27.85;8.98;;;9.20;99.90;;;;;;5001610;28;20065;-73
2023/03/21 04:55:04;;;;;;;18.65;8.05;;;9.20;99.90;;;;;;4996915;28;20830;-72
2023/03/21 04:57:30;;;;;;;21.95;8.60;;;9.20;99.90;;;;;;4997478;28;20069;-72
2023/03/21 04:59:55;;;;;;;22.15;8.40;;;9.20;99.90;;;;;;5013721;28;20088;-74
2023/03/21 05:02:21;;;;;;;23.77;8.65;;;9.20;99.90;;;;;;5003537;28;20029;-73
2023/03/21 05:04:46;;;;;;;18.83;7.93;;;9.20;99.90;;;;;;4998060;28;20685;-74
2023/03/21 05:07:12;;;;;;;24.00;8.38;;;9.20;99.90;;;;;;5006080;28;20041;-73
2023/03/21 05:09:37;;;;;;;21.95;8.07;;;9.20;99.90;;;;;;4996241;28;20034;-73
2023/03/21 05:12:03;;;;;;;25.42;7.57;;;9.20;99.90;;;;;;4996077;28;20447;-73
2023/03/21 05:14:29;;;;;;;17.48;7.95;;;9.10;99.90;;;;;;4997019;28;20034;-73
2023/03/21 05:16:56;;;;;;;25.40;8.65;;;9.10;99.90;;;;;;4997889;28;20446;-72
2023/03/21 05:19:34;;;;;;;23.73;8.00;;;9.10;99.90;;;;;;5001674;28;20802;-74
2023/03/21 05:22:10;;;;;;;24.42;8.45;;;9.10;99.90;;;;;;4997655;28;20407;-73
2023/03/21 05:24:40;;;;;;;21.23;7.28;;;9.10;99.90;;;;;;4996617;28;20041;-73
2023/03/21 05:27:06;;;;;;;24.13;8.07;;;9.10;99.90;;;;;;5000121;28;20502;-72
2023/03/21 05:29:32;;;;;;;20.00;7.35;;;9.10;99.90;;;;;;5001099;28;20042;-72
2023/03/21 05:31:59;;;;;;;17.65;7.03;;;9.10;99.90;;;;;;4994339;28;20686;-73
2023/03/21 05:34:26;;;;;;;23.98;8.57;;;9.10;99.90;;;;;;5001269;28;20038;-73
2023/03/21 05:36:52;;;;;;;24.08;7.90;;;9.10;99.90;;;;;;4994684;28;20036;-73
2023/03/21 05:39:18;;;;;;;19.20;7.47;;;9.10;99.90;;;;;;4996618;28;20522;-73
2023/03/21 05:41:44;;;;;;;22.00;7.43;;;9.10;99.90;;;;;;4997442;28;20107;-73
2023/03/21 05:44:10;;;;;;;23.52;8.48;;;9.20;99.90;;;;;;4994350;28;20465;-74
2023/03/21 05:46:35;;;;;;;22.55;7.10;;;9.10;99.90;;;;;;5000239;28;20030;-74
2023/03/21 05:49:01;;;;;;;17.15;6.45;;;9.10;99.90;;;;;;5003325;28;20026;-73
2023/03/21 05:51:26;;;;;;;16.27;6.57;;;9.10;99.90;;;;;;5004729;28;20064;-73
2023/03/21 05:53:52;;;;;;;22.60;6.78;;;9.10;99.90;;;;;;5000364;28;20106;-74
2023/03/21 05:56:18;;;;;;;20.67;6.22;;;9.10;99.90;;;;;;5004298;28;20434;-75
2023/03/21 05:58:43;;;;;;;15.77;6.88;;;9.10;99.90;;;;;;5002442;28;20041;-73
2023/03/21 06:01:09;;;;;;;16.35;6.13;;;9.10;99.90;;;;;;4999232;28;20034;-74
2023/03/21 06:03:35;;;;;;;21.88;6.68;;;9.10;99.90;;;;;;5002470;28;20390;-74
2023/03/21 06:06:02;;;;;;;20.40;6.50;;;9.10;99.90;;;;;;5002518;28;20046;-74
2023/03/21 06:08:28;;;;;;;19.35;6.38;;;9.10;99.90;;;;;;5001076;28;20038;-74
2023/03/21 06:10:54;;;;;;;17.67;6.38;;;9.20;99.90;;;;;;5000960;28;20511;-72
2023/03/21 06:13:20;;;;;;;19.38;6.85;;;9.20;99.90;;;;;;5001274;28;20109;-74
2023/03/21 06:15:45;;;;;;;16.83;6.20;;;9.10;99.90;;;;;;4999563;28;20037;-75
2023/03/21 06:18:11;;;;;;;17.80;5.82;;;9.20;99.90;;;;;;4998880;28;20116;-75
2023/03/21 06:20:37;;;;;;;16.17;5.88;;;9.20;99.90;;;;;;4999427;28;20034;-74
2023/03/21 06:23:05;;;;;;;12.23;6.03;;;9.20;99.90;;;;;;5001430;28;20046;-74
2023/03/21 06:25:31;;;;;;;19.60;7.00;;;9.20;99.90;;;;;;5000464;28;20121;-74
2023/03/21 06:27:56;;;;;;;14.75;5.10;;;9.20;99.90;;;;;;4999613;28;20038;-75
2023/03/21 06:30:25;;;;;;;13.68;6.28;;;9.20;99.90;;;;;;4998798;28;20034;-74
2023/03/21 06:32:51;;;;;;;17.15;5.97;;;9.20;99.90;;;;;;4999222;28;20034;-72
2023/03/21 06:35:17;;;;;;;16.33;5.88;;;9.20;99.90;;;;;;5001251;28;20038;-74
2023/03/21 06:37:44;;;;;;;15.23;5.60;;;9.30;99.90;;;;;;4999844;28;20438;-73
2023/03/21 06:40:10;;;;;;;16.45;5.50;;;9.20;99.90;;;;;;4998816;28;20827;-73
2023/03/21 06:42:36;;;;;;;13.13;4.88;;;9.30;99.90;;;;;;4999914;28;20044;-73
2023/03/21 06:45:02;;;;;;;13.02;5.53;;;9.30;99.90;;;;;;4998737;28;20075;-73
2023/03/21 06:47:27;;;;;;;17.25;5.15;;;9.30;99.90;;;;;;5010305;28;20039;-73
2023/03/21 06:49:53;;;;;;;17.35;5.55;;;9.30;99.90;;;;;;4998382;28;20844;-74
2023/03/21 06:52:18;;;;;;;12.02;4.95;;;9.20;99.90;;;;;;4999719;28;20398;-73
2023/03/21 06:54:44;;;;;;;15.05;4.82;;;9.30;99.90;;;;;;4999072;28;20030;-75
2023/03/21 06:57:10;;;;;;;16.75;5.07;;;9.20;99.90;;;;;;4999112;28;22197;-73
2023/03/21 06:59:35;;;;;;;14.27;5.47;;;9.30;99.90;;;;;;4998145;28;20041;-74
2023/03/21 07:02:01;;;;;;;13.70;5.22;;;9.30;99.90;;;;;;4998979;28;20816;-74
2023/03/21 07:04:27;;;;;;;14.25;5.07;;;9.30;99.90;;;;;;4999678;28;20070;-72
2023/03/21 07:06:53;;;;;;;21.00;5.82;;;9.30;99.90;;;;;;5003156;28;20061;-74
2023/03/21 07:09:23;;;;;;;15.60;5.22;;;9.30;99.90;;;;;;4999243;28;20080;-74
2023/03/21 07:11:52;;;;;;;14.73;5.30;;;9.30;99.90;;;;;;4997223;28;20034;-73
2023/03/21 07:14:17;;;;;;;27.02;5.18;;;9.30;99.90;;;;;;4997383;28;20066;-74
2023/03/21 07:16:43;;;;;;;18.65;5.50;;;9.40;99.90;;;;;;4998942;28;20149;-75
2023/03/21 07:19:09;;;;;;;11.13;4.30;;;9.30;99.90;;;;;;5000119;28;20025;-72
2023/03/21 07:21:34;;;;;;;11.45;4.10;;;9.30;99.90;;;;;;4997331;28;20041;-72
2023/03/21 07:24:00;;;;;;;13.52;4.50;;;9.30;99.90;;;;;;4998085;28;20588;-73
2023/03/21 07:26:26;;;;;;;16.08;4.85;;;9.30;99.90;;;;;;4998037;28;20049;-73
2023/03/21 07:28:54;;;;;;;20.15;5.00;;;9.40;99.90;;;;;;4997651;28;20072;-73
2023/03/21 07:31:20;;;;;;;20.25;6.25;;;9.40;99.90;;;;;;4999433;28;20117;-72
2023/03/21 07:33:45;;;;;;;19.38;5.05;;;9.40;99.90;;;;;;4997468;28;20583;-74
2023/03/21 07:36:14;;;;;;;15.60;4.78;;;9.40;99.90;;;;;;4998226;28;20046;-73
2023/03/21 07:38:40;;;;;;;11.82;4.50;;;9.40;99.90;;;;;;4998120;28;20037;-75
2023/03/21 07:41:05;;;;;;;21.58;5.20;;;9.40;99.90;;;;;;4999099;28;20757;-73
2023/03/21 07:43:31;;;;;;;14.23;5.10;;;9.40;99.90;;;;;;4998944;28;20132;-75
2023/03/21 07:45:57;;;;;;;15.45;5.00;;;9.40;99.90;;;;;;4997014;28;20042;-74
2023/03/21 07:48:23;;;;;;;23.17;6.43;;;9.40;99.90;;;;;;4998675;28;20046;-73
2023/03/21 07:50:49;;;;;;;16.95;4.75;;;9.50;99.90;;;;;;4999629;28;20041;-73
2023/03/21 07:53:15;;;;;;;17.85;5.55;;;9.50;99.90;;;;;;4998265;28;20040;-74
2023/03/21 07:55:40;;;;;;;17.55;4.85;;;9.50;99.90;;;;;;4998894;28;20034;-74
2023/03/21 07:58:06;;;;;;;13.98;4.60;;;9.50;99.90;;;;;;4999052;28;20088;-73
2023/03/21 08:00:32;;;;;;;14.88;4.57;;;9.60;99.90;;;;;;4998466;28;20046;-73
2023/03/21 08:02:58;;;;;;;17.50;6.13;;;9.60;99.90;;;;;;4998450;28;20033;-72
2023/03/21 08:05:32;;;;;;;16.63;5.07;;;9.60;99.90;;;;;;4997865;28;20100;-73
2023/03/21 08:07:58;;;;;;;16.08;4.63;;;9.60;99.90;;;;;;5003280;28;20030;-74
2023/03/21 08:10:24;;;;;;;15.73;4.50;;;9.60;99.90;;;;;;4999377;28;20050;-72
2023/03/21 08:12:50;;;;;;;16.10;4.93;;;9.70;99.90;;;;;;5003258;28;20120;-75
2023/03/21 08:15:15;;;;;;;22.17;4.85;;;9.70;99.90;;;;;;5002550;28;20141;-73
2023/03/21 08:17:44;;;;;;;11.90;4.55;;;9.70;99.90;;;;;;5000094;28;20049;-72
2023/03/21 08:20:12;;;;;;;15.43;4.40;;;9.80;99.90;;;;;;5000867;28;20046;-75
2023/03/21 08:22:37;;;;;;;15.50;4.50;;;9.80;99.90;;;;;;5000711;28;20030;-74
2023/03/21 08:25:05;;;;;;;14.57;4.80;;;9.80;99.90;;;;;;5001729;28;20046;-75
2023/03/21 08:27:31;;;;;;;14.48;4.18;;;9.80;99.90;;;;;;5000984;28;20037;-73
2023/03/21 08:29:58;;;;;;;11.73;3.80;;;9.80;99.90;;;;;;4999815;28;20101;-75
2023/03/21 08:32:28;;;;;;;19.38;4.75;;;9.80;99.90;;;;;;5001034;28;20081;-72
2023/03/21 08:34:54;;;;;;;15.75;4.15;;;9.90;99.90;;;;;;5000358;28;20042;-73
2023/03/21 08:37:20;;;;;;;12.35;4.43;;;9.90;99.90;;;;;;5002397;28;20564;-73
2023/03/21 08:39:46;;;;;;;16.17;4.65;;;9.90;99.90;;;;;;5001235;28;20144;-73
2023/03/21 08:42:11;;;;;;;12.38;4.35;;;9.90;99.90;;;;;;5001237;28;20030;-74
2023/03/21 08:44:38;;;;;;;16.40;3.88;;;9.90;99.90;;;;;;5001450;28;20061;-74
2023/03/21 08:47:05;;;;;;;8.43;3.30;;;9.90;99.90;;;;;;5003646;28;20153;-74
2023/03/21 08:49:30;;;;;;;10.65;3.65;;;9.90;99.90;;;;;;5002502;28;20045;-73
2023/03/21 08:51:56;;;;;;;14.95;4.85;;;9.90;99.90;;;;;;4999979;28;20038;-75
2023/03/21 08:54:22;;;;;;;12.52;4.30;;;10.00;99.90;;;;;;5001352;28;20573;-73
2023/03/21 08:56:48;;;;;;;17.08;3.67;;;10.00;99.90;;;;;;4996723;28;20038;-73
2023/03/21 08:59:14;;;;;;;11.70;4.40;;;10.00;99.90;;;;;;5003306;28;20477;-73
2023/03/21 09:01:40;;;;;;;11.07;3.80;;;10.10;99.90;;;;;;4999081;28;20030;-72
2023/03/21 09:04:09;;;;;;;13.63;3.92;;;10.10;99.90;;;;;;5000536;28;20130;-73
2023/03/21 09:06:36;;;;;;;18.52;4.07;;;10.10;99.90;;;;;;5003449;28;20506;-73
2023/03/21 09:09:04;;;;;;;12.68;4.47;;;10.20;99.90;;;;;;5000329;28;20117;-75
2023/03/21 09:11:30;;;;;;;11.77;3.45;;;10.20;99.90;;;;;;4998267;28;20061;-73
2023/03/21 09:13:55;;;;;;;8.20;2.90;;;10.20;99.90;;;;;;5003935;28;20145;-74
2023/03/21 09:16:21;;;;;;;16.50;4.05;;;10.20;99.90;;;;;;4997713;28;20414;-73
2023/03/21 09:18:49;;;;;;;12.35;3.00;;;10.20;99.90;;;;;;4997723;28;20145;-73
2023/03/21 09:21:17;;;;;;;9.75;3.75;;;10.30;99.90;;;;;;5001571;28;20076;-75
2023/03/21 09:23:47;;;;;;;13.68;3.72;;;10.30;99.90;;;;;;4998773;28;20522;-72
2023/03/21 09:26:13;;;;;;;13.57;3.10;;;10.30;99.90;;;;;;4996667;28;20038;-75
2023/03/21 09:28:39;;;;;;;13.80;4.10;;;10.40;99.90;;;;;;5001601;28;20138;-73
2023/03/21 09:31:07;;;;;;;6.53;2.67;;;10.50;99.90;;;;;;5003293;28;20161;-74
2023/03/21 09:33:34;;;;;;;14.38;3.17;;;10.60;99.90;;;;;;4993714;28;20630;-75
2023/03/21 09:36:00;;;;;;;10.25;3.00;;;10.70;99.90;;;;;;5000544;28;20065;-73
2023/03/21 09:38:29;;;;;;;9.93;3.30;;;10.80;99.90;;;;;;4996543;28;20074;-73
2023/03/21 09:41:16;;;;;;;13.43;3.72;;;10.80;99.90;;;;;;5000708;28;20121;-73
2023/03/21 09:44:04;;;;;;;7.22;3.10;;;10.90;99.90;;;;;;4995501;28;20856;-73
2023/03/21 09:46:53;;;;;;;12.55;3.42;;;11.00;99.90;;;;;;5015532;28;20069;-76
2023/03/21 09:49:24;;;;;;;10.13;3.53;;;11.10;99.90;;;;;;4984178;28;20567;-73
2023/03/21 09:51:55;;;;;;;9.82;2.63;;;11.20;99.90;;;;;;5001868;28;20878;-74
2023/03/21 09:54:29;;;;;;;11.40;2.75;;;11.20;99.90;;;;;;4995655;28;20414;-73
2023/03/21 09:56:59;;;;;;;12.88;3.20;;;11.30;99.90;;;;;;4998995;28;20100;-75
2023/03/21 09:59:40;;;;;;;7.45;3.30;;;11.30;99.90;;;;;;4995652;28;20038;-74
2023/03/21 10:02:19;;;;;;;6.75;2.13;;;11.40;99.90;;;;;;4998808;28;20447;-74
2023/03/21 10:04:45;;;;;;;15.15;3.38;;;11.50;99.90;;;;;;5014174;28;20103;-74
2023/03/21 10:07:16;;;;;;;10.50;2.80;;;11.60;99.90;;;;;;5001776;28;20030;-74
2023/03/21 10:09:44;;;;;;;10.05;3.28;;;11.60;99.90;;;;;;5002289;28;20033;-75
2023/03/21 10:12:16;;;;;;;8.27;3.42;;;11.70;99.90;;;;;;5000501;28;20128;-73
2023/03/21 10:14:46;;;;;;;6.75;2.55;;;11.70;99.90;;;;;;4998713;28;20034;-73
2023/03/21 10:17:21;;;;;;;;;;;11.70;99.90;;;;;;5001341;28;20037;-73
2023/03/21 10:19:54;;;;;;;7.80;2.50;;;11.80;99.90;;;;;;5000776;28;20721;-73
2023/03/21 10:22:20;;;;;;;10.38;2.83;;;11.80;99.90;;;;;;4998789;28;20073;-74
2023/03/21 10:24:45;;;;;;;8.68;2.95;;;11.90;99.90;;;;;;5002585;28;20825;-75
2023/03/21 10:27:12;;;;;;;10.20;3.45;;;11.90;99.90;;;;;;5002400;28;20450;-74
2023/03/21 10:29:44;;;;;;;6.90;2.70;;;11.80;99.90;;;;;;4999552;28;20852;-75
2023/03/21 10:32:14;;;;;;;9.55;3.20;;;11.90;99.90;;;;;;5001297;28;20113;-73
2023/03/21 10:34:51;;;;;;;7.63;2.67;;;12.00;99.90;;;;;;5000434;28;20927;-73
2023/03/21 10:37:17;;;;;;;7.68;2.53;;;12.00;99.90;;;;;;5002228;28;20033;-73
2023/03/21 10:39:46;;;;;;;12.50;3.38;;;12.00;99.90;;;;;;4998170;28;20778;-74
2023/03/21 10:42:23;;;;;;;8.57;2.85;;;12.10;99.90;;;;;;5001914;28;20044;-73
2023/03/21 10:44:51;;;;;;;9.23;2.90;;;12.10;99.90;;;;;;4998033;28;20038;-74
2023/03/21 10:47:35;;;;;;;10.45;3.15;;;12.10;99.90;;;;;;5001911;28;20037;-74
2023/03/21 10:50:04;;;;;;;7.35;2.70;;;12.10;99.90;;;;;;4998702;28;20041;-74
2023/03/21 10:52:32;;;;;;;8.50;2.60;;;12.20;99.90;;;;;;5001293;28;20045;-73
2023/03/21 10:55:32;;;;;;;14.80;2.42;;;12.20;99.90;;;;;;5000053;28;20048;-74
2023/03/21 10:58:09;;;;;;;8.18;2.83;;;12.30;99.90;;;;;;4998087;28;20573;-73
2023/03/21 11:00:40;;;;;;;9.30;2.70;;;12.40;99.90;;;;;;4998726;28;20150;-74
2023/03/21 11:03:06;;;;;;;;;;;12.40;99.90;;;;;;5003213;28;20755;-75
2023/03/21 11:05:38;;;;;;;6.68;2.42;;;12.40;99.90;;;;;;5000310;28;20313;-72
2023/03/21 11:08:11;;;;;;;9.35;3.00;;;12.40;99.90;;;;;;4997433;28;20044;-73
2023/03/21 11:11:01;;;;;;;10.57;3.20;;;12.50;99.90;;;;;;4999850;28;20046;-74
2023/03/21 11:13:37;;;;;;;5.93;2.05;;;12.50;99.90;;;;;;4992968;28;20799;-74
2023/03/21 11:16:09;;;;;;;9.98;2.35;;;12.60;99.90;;;;;;5000918;28;20038;-73
2023/03/21 11:18:44;;;;;;;9.50;2.65;;;12.70;99.90;;;;;;4998092;28;20038;-74
2023/03/21 11:21:12;;;;;;;6.07;2.13;;;12.70;99.90;;;;;;5012535;28;20038;-73
2023/03/21 11:23:46;;;;;;;7.20;2.42;;;12.70;99.90;;;;;;4997756;28;20026;-72
2023/03/21 11:26:22;;;;;;;5.70;3.00;;;12.80;99.90;;;;;;4997994;28;20042;-73
2023/03/21 11:28:50;;;;;;;8.57;2.35;;;12.80;99.90;;;;;;4992049;28;20030;-74
2023/03/21 11:31:16;;;;;;;8.95;2.83;;;12.80;99.90;;;;;;4995552;28;20025;-75
2023/03/21 11:33:51;;;;;;;8.18;2.92;;;12.70;99.90;;;;;;4995611;28;20049;-73
2023/03/21 11:36:19;;;;;;;9.93;3.35;;;12.80;99.90;;;;;;4996558;28;20058;-73
2023/03/21 11:39:13;;;;;;;4.68;2.50;;;12.90;99.90;;;;;;4996697;28;20040;-74
2023/03/21 11:41:46;;;;;;;9.00;2.78;;;13.10;99.90;;;;;;4998348;28;20506;-73
2023/03/21 11:44:33;;;;;;;9.23;3.15;;;13.20;99.90;;;;;;4999569;28;20148;-72
2023/03/21 11:46:59;;;;;;;7.35;3.10;;;13.30;99.90;;;;;;4999143;28;20069;-74
2023/03/21 11:49:26;;;;;;;9.32;2.92;;;13.40;99.90;;;;;;4998352;28;20034;-72
2023/03/21 11:52:01;;;;;;;8.73;2.55;;;13.40;99.90;;;;;;5001671;28;20033;-73
2023/03/21 11:54:54;;;;;;;6.88;3.08;;;13.20;99.90;;;;;;5000024;28;20038;-71
2023/03/21 11:57:50;;;;;;;8.75;3.22;;;13.20;99.90;;;;;;5000976;28;20034;-73
2023/03/21 12:00:38;;;;;;;5.70;2.47;;;13.10;99.90;;;;;;4999561;28;20045;-74
2023/03/21 12:03:25;;;;;;;10.38;3.20;;;13.10;99.90;;;;;;5002039;28;20041;-73
2023/03/21 12:06:00;;;;;;;7.35;3.05;;;13.00;99.90;;;;;;5003315;28;20064;-74
2023/03/21 12:08:57;;;;;;;8.50;3.17;;;13.00;99.90;;;;;;5002063;28;20034;-72
2023/03/21 12:11:26;;;;;;;8.57;3.03;;;13.10;99.90;;;;;;4999480;28;20568;-73
2023/03/21 12:14:18;;;;;;;7.97;3.10;;;13.20;99.90;;;;;;5000865;28;20038;-74
2023/03/21 12:17:04;;;;;;;9.15;2.75;;;13.30;99.90;;;;;;5003380;28;20046;-73
2023/03/21 12:20:08;;;;;;;7.00;2.72;;;13.40;99.90;;;;;;5000552;28;20030;-73
2023/03/21 12:22:46;;;;;;;7.05;2.33;;;13.40;99.90;;;;;;5001584;28;20034;-74
2023/03/21 12:25:26;;;;;;;6.07;2.58;;;13.50;99.90;;;;;;5000898;28;20501;-73
2023/03/21 12:28:18;;;;;;;6.78;2.33;;;13.60;99.90;;;;;;5000840;28;20052;-73
2023/03/21 12:31:09;;;;;;;7.03;2.55;;;13.80;99.90;;;;;;4999844;28;20076;-73
2023/03/21 12:33:35;;;;;;;12.15;2.88;;;13.90;99.90;;;;;;4989647;28;20045;-73
2023/03/21 12:36:30;;;;;;;6.65;2.88;;;13.90;99.90;;;;;;4981859;28;20042;-73
2023/03/21 12:39:34;;;;;;;5.78;2.60;;;14.00;99.90;;;;;;4981877;28;20030;-74
2023/03/21 12:42:25;;;;;;;8.52;2.85;;;14.20;99.90;;;;;;4976950;28;20026;-71
2023/03/21 12:45:02;;;;;;;7.35;3.78;;;14.30;99.90;;;;;;4974952;28;20039;-73
2023/03/21 12:47:31;;;;;;;2.88;1.80;;;14.30;99.90;;;;;;4981861;28;20046;-74
2023/03/21 12:50:00;;;;;;;9.02;2.75;;;14.50;99.90;;;;;;4980840;28;20495;-74
2023/03/21 12:52:34;;;;;;;8.93;2.55;;;14.30;99.90;;;;;;4979462;28;20037;-73
2023/03/21 12:55:13;;;;;;;6.15;2.55;;;14.30;99.90;;;;;;4979710;28;20104;-73
2023/03/21 12:57:57;;;;;;;6.18;3.00;;;14.30;99.90;;;;;;4980799;28;20049;-73
2023/03/21 13:00:33;;;;;;;9.40;2.40;;;14.30;99.90;;;;;;4979762;28;20046;-72
2023/03/21 13:02:59;;;;;;;7.53;1.98;;;14.20;99.90;;;;;;4982562;28;20118;-72
2023/03/21 13:05:36;;;;;;;7.78;2.50;;;14.20;99.90;;;;;;4980247;28;20038;-72